sensor_id;sensor_type;location;lat;lon;timestamp;pressure;altitude;pressure_sealevel;temperature;humidity
10064;BME280;5071;52.360;13.134;2023-04-07T00:02:54;101495.53;;;-0.58;79.96
10064;BME280;5071;52.360;13.134;2023-04-07T00:07:58;101489.63;;;-0.54;81.66
10064;BME280;5071;52.360;13.134;2023-04-07T00:13:00;101483.09;;;-0.64;80.72
10064;BME280;5071;52.360;13.134;2023-04-07T00:18:02;101488.34;;;-0.62;81.09
10064;BME280;5071;52.360;13.134;2023-04-07T00:23:06;101476.00;;;-0.66;81.48
10064;BME280;5071;52.360;13.134;2023-04-07T00:28:08;101480.13;;;-0.71;81.25
10064;BME280;5071;52.360;13.134;2023-04-07T00:33:10;101482.34;;;-0.81;81.45
10064;BME280;5071;52.360;13.134;2023-04-07T00:38:13;101480.25;;;-0.88;82.61
10064;BME280;5071;52.360;13.134;2023-04-07T00:43:16;101483.94;;;-1.02;82.40
10064;BME280;5071;52.360;13.134;2023-04-07T00:48:19;101479.41;;;-1.06;83.05
10064;BME280;5071;52.360;13.134;2023-04-07T00:53:22;101477.84;;;-1.21;83.82
10064;BME280;5071;52.360;13.134;2023-04-07T00:58:24;101468.72;;;-1.30;83.37
10064;BME280;5071;52.360;13.134;2023-04-07T01:03:30;101471.84;;;-1.38;83.91
10064;BME280;5071;52.360;13.134;2023-04-07T01:08:47;101474.81;;;-1.30;84.71
10064;BME280;5071;52.360;13.134;2023-04-07T01:13:51;101460.81;;;-1.14;84.65
10064;BME280;5071;52.360;13.134;2023-04-07T01:18:58;101454.50;;;-1.37;84.41
10064;BME280;5071;52.360;13.134;2023-04-07T01:24:31;101451.63;;;-1.43;84.55
10064;BME280;5071;52.360;13.134;2023-04-07T01:29:39;101449.78;;;-1.46;85.15
10064;BME280;5071;52.360;13.134;2023-04-07T01:34:44;101450.59;;;-1.65;85.32
10064;BME280;5071;52.360;13.134;2023-04-07T01:39:48;101452.69;;;-1.58;85.92
10064;BME280;5071;52.360;13.134;2023-04-07T01:44:52;101445.75;;;-1.75;85.23
10064;BME280;5071;52.360;13.134;2023-04-07T01:49:54;101441.91;;;-1.83;85.65
10064;BME280;5071;52.360;13.134;2023-04-07T01:54:57;101440.31;;;-1.98;86.22
10064;BME280;5071;52.360;13.134;2023-04-07T02:00:00;101438.84;;;-1.92;86.70
10064;BME280;5071;52.360;13.134;2023-04-07T02:05:04;101440.94;;;-1.85;87.59
10064;BME280;5071;52.360;13.134;2023-04-07T02:10:11;101445.00;;;-1.90;86.94
10064;BME280;5071;52.360;13.134;2023-04-07T02:15:15;101440.31;;;-1.98;87.60
10064;BME280;5071;52.360;13.134;2023-04-07T02:20:19;101432.38;;;-2.01;87.39
10064;BME280;5071;52.360;13.134;2023-04-07T02:25:23;101428.44;;;-1.92;87.86
10064;BME280;5071;52.360;13.134;2023-04-07T02:30:27;101430.81;;;-1.97;87.61
10064;BME280;5071;52.360;13.134;2023-04-07T02:35:29;101420.69;;;-2.09;87.25
10064;BME280;5071;52.360;13.134;2023-04-07T02:40:31;101425.53;;;-1.99;88.20
10064;BME280;5071;52.360;13.134;2023-04-07T02:45:37;101422.94;;;-1.99;87.46
10064;BME280;5071;52.360;13.134;2023-04-07T02:50:39;101429.78;;;-1.83;88.08
10064;BME280;5071;52.360;13.134;2023-04-07T02:55:41;101426.97;;;-1.87;87.82
10064;BME280;5071;52.360;13.134;2023-04-07T03:00:44;101426.78;;;-1.90;87.81
10064;BME280;5071;52.360;13.134;2023-04-07T03:05:46;101417.00;;;-1.78;88.22
10064;BME280;5071;52.360;13.134;2023-04-07T03:10:48;101411.19;;;-1.90;87.60
10064;BME280;5071;52.360;13.134;2023-04-07T03:15:51;101409.59;;;-2.05;88.10
10064;BME280;5071;52.360;13.134;2023-04-07T03:20:53;101415.34;;;-1.94;88.51
10064;BME280;5071;52.360;13.134;2023-04-07T03:25:55;101405.09;;;-1.91;88.33
10064;BME280;5071;52.360;13.134;2023-04-07T03:30:59;101417.56;;;-2.02;88.10
10064;BME280;5071;52.360;13.134;2023-04-07T03:36:01;101408.81;;;-2.04;88.25
10064;BME280;5071;52.360;13.134;2023-04-07T03:41:03;101404.81;;;-1.97;89.73
10064;BME280;5071;52.360;13.134;2023-04-07T03:46:06;101402.94;;;-1.82;88.65
10064;BME280;5071;52.360;13.134;2023-04-07T03:51:08;101405.53;;;-2.00;87.85
10064;BME280;5071;52.360;13.134;2023-04-07T03:56:11;101407.47;;;-1.96;89.42
10064;BME280;5071;52.360;13.134;2023-04-07T04:01:17;101401.06;;;-1.84;89.57
10064;BME280;5071;52.360;13.134;2023-04-07T04:06:19;101405.31;;;-1.68;89.33
10064;BME280;5071;52.360;13.134;2023-04-07T04:11:21;101416.03;;;-1.80;88.54
10064;BME280;5071;52.360;13.134;2023-04-07T04:16:24;101400.47;;;-1.79;89.03
10064;BME280;5071;52.360;13.134;2023-04-07T04:21:26;101407.31;;;-1.63;90.28
10064;BME280;5071;52.360;13.134;2023-04-07T04:26:28;101417.09;;;-1.39;89.52
10064;BME280;5071;52.360;13.134;2023-04-07T04:31:31;101414.28;;;-1.44;89.16
10064;BME280;5071;52.360;13.134;2023-04-07T04:36:33;101415.44;;;-1.37;89.97
10064;BME280;5071;52.360;13.134;2023-04-07T04:41:39;101399.97;;;-1.34;89.55
10064;BME280;5071;52.360;13.134;2023-04-07T04:46:42;101402.22;;;-1.24;89.78
10064;BME280;5071;52.360;13.134;2023-04-07T04:51:44;101397.81;;;-1.25;89.66
10064;BME280;5071;52.360;13.134;2023-04-07T04:56:46;101406.31;;;-1.09;89.85
10064;BME280;5071;52.360;13.134;2023-04-07T05:01:49;101414.16;;;-0.90;89.21
10064;BME280;5071;52.360;13.134;2023-04-07T05:06:51;101399.47;;;-0.68;88.10
10064;BME280;5071;52.360;13.134;2023-04-07T05:11:53;101414.47;;;-0.43;87.45
10064;BME280;5071;52.360;13.134;2023-04-07T05:16:56;101418.25;;;0.06;88.27
10064;BME280;5071;52.360;13.134;2023-04-07T05:21:59;101422.56;;;0.49;86.48
10064;BME280;5071;52.360;13.134;2023-04-07T05:27:01;101426.97;;;0.95;84.03
10064;BME280;5071;52.360;13.134;2023-04-07T05:32:05;101421.97;;;1.49;82.11
10064;BME280;5071;52.360;13.134;2023-04-07T05:37:07;101414.88;;;2.51;78.68
10064;BME280;5071;52.360;13.134;2023-04-07T05:42:09;101416.63;;;4.06;77.13
10064;BME280;5071;52.360;13.134;2023-04-07T05:47:12;101412.84;;;5.09;67.44
10064;BME280;5071;52.360;13.134;2023-04-07T05:52:14;101416.38;;;6.56;65.23
10064;BME280;5071;52.360;13.134;2023-04-07T05:57:16;101416.00;;;7.67;58.48
10064;BME280;5071;52.360;13.134;2023-04-07T06:02:19;101418.28;;;6.11;60.39
10064;BME280;5071;52.360;13.134;2023-04-07T06:07:21;101414.22;;;5.34;63.64
10064;BME280;5071;52.360;13.134;2023-04-07T06:12:23;101417.78;;;4.95;65.18
10064;BME280;5071;52.360;13.134;2023-04-07T06:17:27;101415.72;;;4.79;65.65
10064;BME280;5071;52.360;13.134;2023-04-07T06:22:29;101415.72;;;4.80;66.09
10064;BME280;5071;52.360;13.134;2023-04-07T06:27:31;101424.75;;;5.34;64.09
10064;BME280;5071;52.360;13.134;2023-04-07T06:32:35;101423.38;;;5.53;64.11
10064;BME280;5071;52.360;13.134;2023-04-07T06:37:37;101421.00;;;5.67;63.52
10064;BME280;5071;52.360;13.134;2023-04-07T06:42:39;101422.81;;;6.18;63.30
10064;BME280;5071;52.360;13.134;2023-04-07T06:47:42;101418.53;;;6.27;62.80
10064;BME280;5071;52.360;13.134;2023-04-07T06:52:44;101423.94;;;6.33;62.93
10064;BME280;5071;52.360;13.134;2023-04-07T06:57:49;101426.06;;;7.21;57.79
10064;BME280;5071;52.360;13.134;2023-04-07T07:02:53;101423.91;;;7.64;54.94
10064;BME280;5071;52.360;13.134;2023-04-07T07:07:55;101428.16;;;7.50;55.10
10064;BME280;5071;52.360;13.134;2023-04-07T07:12:57;101418.88;;;7.11;56.91
10064;BME280;5071;52.360;13.134;2023-04-07T07:18:00;101423.66;;;7.43;56.17
10064;BME280;5071;52.360;13.134;2023-04-07T07:23:03;101422.97;;;7.59;55.12
10064;BME280;5071;52.360;13.134;2023-04-07T07:28:04;101422.78;;;7.42;55.65
10064;BME280;5071;52.360;13.134;2023-04-07T07:33:08;101433.66;;;7.68;54.70
10064;BME280;5071;52.360;13.134;2023-04-07T07:38:10;101431.34;;;8.07;54.01
10064;BME280;5071;52.360;13.134;2023-04-07T07:43:11;101424.47;;;8.26;51.91
10064;BME280;5071;52.360;13.134;2023-04-07T07:48:15;101447.75;;;8.64;50.56
10064;BME280;5071;52.360;13.134;2023-04-07T07:53:17;101434.59;;;8.78;49.07
10064;BME280;5071;52.360;13.134;2023-04-07T07:58:19;101433.88;;;9.05;47.75
10064;BME280;5071;52.360;13.134;2023-04-07T08:03:22;101438.31;;;9.15;46.05
10064;BME280;5071;52.360;13.134;2023-04-07T08:08:24;101440.81;;;8.84;46.75
10064;BME280;5071;52.360;13.134;2023-04-07T08:13:26;101441.31;;;8.37;47.66
10064;BME280;5071;52.360;13.134;2023-04-07T08:18:30;101436.34;;;8.75;47.72
10064;BME280;5071;52.360;13.134;2023-04-07T08:23:32;101441.59;;;8.72;47.02
10064;BME280;5071;52.360;13.134;2023-04-07T08:28:35;101450.28;;;8.51;47.06
10064;BME280;5071;52.360;13.134;2023-04-07T08:33:38;101441.50;;;8.54;47.48
10064;BME280;5071;52.360;13.134;2023-04-07T08:38:40;101457.41;;;8.63;48.11
10064;BME280;5071;52.360;13.134;2023-04-07T08:43:43;101453.25;;;9.02;47.16
10064;BME280;5071;52.360;13.134;2023-04-07T08:48:50;101450.00;;;9.69;45.81
10064;BME280;5071;52.360;13.134;2023-04-07T08:53:53;101456.22;;;9.87;45.16
10064;BME280;5071;52.360;13.134;2023-04-07T08:58:55;101456.94;;;9.33;46.50
10064;BME280;5071;52.360;13.134;2023-04-07T09:04:07;101457.03;;;9.64;46.37
10064;BME280;5071;52.360;13.134;2023-04-07T09:09:09;101464.06;;;9.47;45.18
10064;BME280;5071;52.360;13.134;2023-04-07T09:14:13;101473.25;;;8.55;47.50
10064;BME280;5071;52.360;13.134;2023-04-07T09:19:16;101463.59;;;8.61;48.49
10064;BME280;5071;52.360;13.134;2023-04-07T09:24:23;101462.06;;;8.93;46.41
10064;BME280;5071;52.360;13.134;2023-04-07T09:29:25;101458.91;;;8.30;45.29
10064;BME280;5071;52.360;13.134;2023-04-07T09:34:30;101461.66;;;8.41;44.84
10064;BME280;5071;52.360;13.134;2023-04-07T09:39:34;101465.72;;;9.19;42.53
10064;BME280;5071;52.360;13.134;2023-04-07T09:44:49;101455.84;;;8.90;42.53
10064;BME280;5071;52.360;13.134;2023-04-07T09:49:53;101466.63;;;9.25;43.19
10064;BME280;5071;52.360;13.134;2023-04-07T09:54:55;101471.63;;;8.78;41.37
10064;BME280;5071;52.360;13.134;2023-04-07T09:59:58;101469.63;;;8.46;41.96
10064;BME280;5071;52.360;13.134;2023-04-07T10:05:02;101461.56;;;8.32;40.36
10064;BME280;5071;52.360;13.134;2023-04-07T10:10:06;101465.22;;;8.43;41.24
10064;BME280;5071;52.360;13.134;2023-04-07T10:15:11;101466.13;;;8.47;41.43
10064;BME280;5071;52.360;13.134;2023-04-07T10:20:18;101481.84;;;8.34;41.87
10064;BME280;5071;52.360;13.134;2023-04-07T10:25:22;101482.31;;;7.92;41.06
10064;BME280;5071;52.360;13.134;2023-04-07T10:30:26;101474.81;;;8.36;41.97
10064;BME280;5071;52.360;13.134;2023-04-07T10:36:01;101477.97;;;7.94;40.83
10064;BME280;5071;52.360;13.134;2023-04-07T10:41:31;101476.19;;;7.93;40.29
10064;BME280;5071;52.360;13.134;2023-04-07T10:47:01;101469.69;;;8.50;39.25
10064;BME280;5071;52.360;13.134;2023-04-07T10:57:34;101477.59;;;8.47;36.98
10064;BME280;5071;52.360;13.134;2023-04-07T11:02:37;101469.56;;;8.40;38.03
10064;BME280;5071;52.360;13.134;2023-04-07T11:07:53;101454.91;;;8.83;38.53
10064;BME280;5071;52.360;13.134;2023-04-07T11:13:03;101454.09;;;8.95;40.36
10064;BME280;5071;52.360;13.134;2023-04-07T11:18:13;101466.56;;;9.11;40.68
10064;BME280;5071;52.360;13.134;2023-04-07T11:23:16;101458.63;;;9.19;40.56
10064;BME280;5071;52.360;13.134;2023-04-07T11:28:20;101457.03;;;9.52;39.88
10064;BME280;5071;52.360;13.134;2023-04-07T11:33:23;101457.84;;;9.39;37.65
10064;BME280;5071;52.360;13.134;2023-04-07T11:38:26;101462.72;;;8.63;38.31
10064;BME280;5071;52.360;13.134;2023-04-07T11:43:30;101463.28;;;8.27;39.94
10064;BME280;5071;52.360;13.134;2023-04-07T11:48:33;101464.00;;;8.07;42.92
10064;BME280;5071;52.360;13.134;2023-04-07T11:53:35;101458.44;;;7.83;44.48
10064;BME280;5071;52.360;13.134;2023-04-07T11:58:46;101457.78;;;8.02;45.67
10064;BME280;5071;52.360;13.134;2023-04-07T12:03:56;101472.47;;;7.75;47.26
10064;BME280;5071;52.360;13.134;2023-04-07T12:08:59;101462.53;;;7.53;49.16
10064;BME280;5071;52.360;13.134;2023-04-07T12:14:03;101470.50;;;7.57;51.58
10064;BME280;5071;52.360;13.134;2023-04-07T12:19:05;101476.94;;;7.83;53.14
10064;BME280;5071;52.360;13.134;2023-04-07T12:24:07;101471.63;;;7.79;55.77
10064;BME280;5071;52.360;13.134;2023-04-07T12:29:11;101469.28;;;8.07;61.42
10064;BME280;5071;52.360;13.134;2023-04-07T12:34:13;101479.09;;;8.21;61.64
10064;BME280;5071;52.360;13.134;2023-04-07T12:39:15;101473.34;;;7.74;65.97
10064;BME280;5071;52.360;13.134;2023-04-07T12:44:18;101479.28;;;7.55;70.05
10064;BME280;5071;52.360;13.134;2023-04-07T12:49:20;101473.88;;;6.78;72.42
10064;BME280;5071;52.360;13.134;2023-04-07T12:54:22;101479.91;;;7.32;74.63
10064;BME280;5071;52.360;13.134;2023-04-07T12:59:25;101474.88;;;7.55;74.86
10064;BME280;5071;52.360;13.134;2023-04-07T13:04:27;101474.69;;;7.38;75.79
10064;BME280;5071;52.360;13.134;2023-04-07T13:09:29;101473.59;;;7.21;78.42
10064;BME280;5071;52.360;13.134;2023-04-07T13:14:32;101470.94;;;7.21;78.63
10064;BME280;5071;52.360;13.134;2023-04-07T13:19:34;101473.59;;;7.24;78.74
10064;BME280;5071;52.360;13.134;2023-04-07T13:24:38;101476.94;;;7.11;84.87
10064;BME280;5071;52.360;13.134;2023-04-07T13:29:41;101467.72;;;6.78;82.55
10064;BME280;5071;52.360;13.134;2023-04-07T13:34:43;101475.47;;;6.69;84.23
10064;BME280;5071;52.360;13.134;2023-04-07T13:39:45;101468.03;;;6.43;85.95
10064;BME280;5071;52.360;13.134;2023-04-07T13:44:48;101464.53;;;6.44;85.70
10064;BME280;5071;52.360;13.134;2023-04-07T13:49:50;101469.69;;;6.38;85.92
10064;BME280;5071;52.360;13.134;2023-04-07T13:54:52;101463.06;;;6.10;86.46
10064;BME280;5071;52.360;13.134;2023-04-07T13:59:55;101463.94;;;6.62;84.76
10064;BME280;5071;52.360;13.134;2023-04-07T14:04:57;101472.34;;;6.36;84.16
10064;BME280;5071;52.360;13.134;2023-04-07T14:09:59;101466.38;;;5.98;85.78
10064;BME280;5071;52.360;13.134;2023-04-07T14:15:03;101471.66;;;5.98;88.05
10064;BME280;5071;52.360;13.134;2023-04-07T14:20:06;101465.09;;;5.77;88.84
10064;BME280;5071;52.360;13.134;2023-04-07T14:25:09;101463.84;;;6.04;90.39
10064;BME280;5071;52.360;13.134;2023-04-07T14:30:12;101449.44;;;6.35;87.17
10064;BME280;5071;52.360;13.134;2023-04-07T14:35:14;101453.09;;;6.43;87.05
10064;BME280;5071;52.360;13.134;2023-04-07T14:40:16;101453.84;;;6.35;87.22
10064;BME280;5071;52.360;13.134;2023-04-07T14:45:19;101450.31;;;6.33;87.96
10064;BME280;5071;52.360;13.134;2023-04-07T14:50:21;101457.31;;;6.31;89.11
10064;BME280;5071;52.360;13.134;2023-04-07T14:55:23;101454.84;;;5.94;90.12
10064;BME280;5071;52.360;13.134;2023-04-07T15:00:26;101466.59;;;6.09;91.39
10064;BME280;5071;52.360;13.134;2023-04-07T15:05:29;101459.47;;;6.06;90.93
10064;BME280;5071;52.360;13.134;2023-04-07T15:10:30;101460.38;;;6.05;92.78
10064;BME280;5071;52.360;13.134;2023-04-07T15:15:34;101447.59;;;6.30;92.46
10064;BME280;5071;52.360;13.134;2023-04-07T15:20:36;101452.06;;;6.34;91.04
10064;BME280;5071;52.360;13.134;2023-04-07T15:25:37;101453.88;;;6.38;91.36
10064;BME280;5071;52.360;13.134;2023-04-07T15:30:41;101452.63;;;6.14;91.49
10064;BME280;5071;52.360;13.134;2023-04-07T15:35:43;101459.16;;;5.88;93.68
10064;BME280;5071;52.360;13.134;2023-04-07T15:40:45;101459.25;;;5.94;94.64
10064;BME280;5071;52.360;13.134;2023-04-07T15:45:48;101465.66;;;6.07;95.16
10064;BME280;5071;52.360;13.134;2023-04-07T15:50:52;101452.94;;;5.85;95.61
10064;BME280;5071;52.360;13.134;2023-04-07T15:55:54;101460.84;;;5.84;96.84
10064;BME280;5071;52.360;13.134;2023-04-07T16:00:57;101463.78;;;5.99;95.98
10064;BME280;5071;52.360;13.134;2023-04-07T16:05:59;101466.38;;;5.98;96.08
10064;BME280;5071;52.360;13.134;2023-04-07T16:11:01;101464.31;;;5.83;96.73
10064;BME280;5071;52.360;13.134;2023-04-07T16:16:05;101478.22;;;5.76;96.88
10064;BME280;5071;52.360;13.134;2023-04-07T16:21:06;101470.19;;;5.68;97.99
10064;BME280;5071;52.360;13.134;2023-04-07T16:26:08;101469.38;;;5.72;99.11
10064;BME280;5071;52.360;13.134;2023-04-07T16:31:12;101472.91;;;5.74;99.25
10064;BME280;5071;52.360;13.134;2023-04-07T16:36:14;101474.47;;;5.63;98.38
10064;BME280;5071;52.360;13.134;2023-04-07T16:41:15;101478.78;;;5.58;98.30
10064;BME280;5071;52.360;13.134;2023-04-07T16:46:19;101477.75;;;5.51;98.82
10064;BME280;5071;52.360;13.134;2023-04-07T16:51:21;101483.78;;;5.45;99.54
10064;BME280;5071;52.360;13.134;2023-04-07T16:56:23;101487.47;;;5.54;99.81
10064;BME280;5071;52.360;13.134;2023-04-07T17:01:27;101490.19;;;5.58;100.00
10064;BME280;5071;52.360;13.134;2023-04-07T17:06:29;101496.22;;;5.53;99.92
10064;BME280;5071;52.360;13.134;2023-04-07T17:11:30;101489.25;;;5.56;100.00
10064;BME280;5071;52.360;13.134;2023-04-07T17:16:34;101493.22;;;5.36;100.00
10064;BME280;5071;52.360;13.134;2023-04-07T17:21:36;101497.63;;;5.35;100.00
10064;BME280;5071;52.360;13.134;2023-04-07T17:26:38;101499.34;;;5.33;100.00
10064;BME280;5071;52.360;13.134;2023-04-07T17:31:41;101499.38;;;5.36;100.00
10064;BME280;5071;52.360;13.134;2023-04-07T17:36:43;101502.88;;;5.35;100.00
10064;BME280;5071;52.360;13.134;2023-04-07T17:41:45;101510.81;;;5.38;100.00
10064;BME280;5071;52.360;13.134;2023-04-07T17:46:48;101512.63;;;5.39;100.00
10064;BME280;5071;52.360;13.134;2023-04-07T17:51:50;101517.00;;;5.39;100.00
10064;BME280;5071;52.360;13.134;2023-04-07T17:56:51;101516.88;;;5.34;100.00
10064;BME280;5071;52.360;13.134;2023-04-07T18:01:55;101523.03;;;5.33;100.00
10064;BME280;5071;52.360;13.134;2023-04-07T18:06:57;101530.84;;;5.30;100.00
10064;BME280;5071;52.360;13.134;2023-04-07T18:11:59;101525.63;;;5.32;100.00
10064;BME280;5071;52.360;13.134;2023-04-07T18:17:03;101530.97;;;5.36;100.00
10064;BME280;5071;52.360;13.134;2023-04-07T18:22:04;101534.38;;;5.32;100.00
10064;BME280;5071;52.360;13.134;2023-04-07T18:27:06;101539.53;;;5.26;100.00
10064;BME280;5071;52.360;13.134;2023-04-07T18:32:09;101543.00;;;5.25;100.00
10064;BME280;5071;52.360;13.134;2023-04-07T18:37:11;101550.84;;;5.22;100.00
10064;BME280;5071;52.360;13.134;2023-04-07T18:42:13;101544.78;;;5.26;100.00
10064;BME280;5071;52.360;13.134;2023-04-07T18:47:16;101548.34;;;5.28;100.00
10064;BME280;5071;52.360;13.134;2023-04-07T18:52:18;101553.66;;;5.30;100.00
10064;BME280;5071;52.360;13.134;2023-04-07T18:57:20;101553.69;;;5.31;100.00
10064;BME280;5071;52.360;13.134;2023-04-07T19:02:24;101558.88;;;5.28;100.00
10064;BME280;5071;52.360;13.134;2023-04-07T19:07:26;101564.97;;;5.25;100.00
10064;BME280;5071;52.360;13.134;2023-04-07T19:12:28;101562.44;;;5.30;100.00
10064;BME280;5071;52.360;13.134;2023-04-07T19:17:31;101574.66;;;5.28;100.00
10064;BME280;5071;52.360;13.134;2023-04-07T19:22:33;101583.41;;;5.27;100.00
10064;BME280;5071;52.360;13.134;2023-04-07T19:27:35;101581.66;;;5.26;100.00
10064;BME280;5071;52.360;13.134;2023-04-07T19:32:38;101587.69;;;5.22;100.00
10064;BME280;5071;52.360;13.134;2023-04-07T19:37:40;101589.53;;;5.26;100.00
10064;BME280;5071;52.360;13.134;2023-04-07T19:42:42;101582.44;;;5.23;100.00
10064;BME280;5071;52.360;13.134;2023-04-07T19:47:45;101586.75;;;5.20;100.00
10064;BME280;5071;52.360;13.134;2023-04-07T19:52:47;101586.88;;;5.24;100.00
10064;BME280;5071;52.360;13.134;2023-04-07T19:57:49;101594.00;;;5.30;100.00
10064;BME280;5071;52.360;13.134;2023-04-07T20:02:52;101588.00;;;5.36;100.00
10064;BME280;5071;52.360;13.134;2023-04-07T20:07:54;101591.47;;;5.35;100.00
10064;BME280;5071;52.360;13.134;2023-04-07T20:12:56;101596.72;;;5.33;100.00
10064;BME280;5071;52.360;13.134;2023-04-07T20:17:59;101593.31;;;5.37;100.00
10064;BME280;5071;52.360;13.134;2023-04-07T20:23:01;101594.84;;;5.28;100.00
10064;BME280;5071;52.360;13.134;2023-04-07T20:28:03;101587.53;;;5.16;100.00
10064;BME280;5071;52.360;13.134;2023-04-07T20:33:06;101583.13;;;5.15;100.00
10064;BME280;5071;52.360;13.134;2023-04-07T20:38:11;101578.84;;;5.20;100.00
10064;BME280;5071;52.360;13.134;2023-04-07T20:43:13;101577.97;;;5.19;100.00
10064;BME280;5071;52.360;13.134;2023-04-07T20:48:17;101577.00;;;5.16;100.00
10064;BME280;5071;52.360;13.134;2023-04-07T20:53:18;101575.28;;;5.16;100.00
10064;BME280;5071;52.360;13.134;2023-04-07T20:58:20;101585.81;;;5.16;100.00
10064;BME280;5071;52.360;13.134;2023-04-07T21:03:24;101591.97;;;5.17;100.00
10064;BME280;5071;52.360;13.134;2023-04-07T21:08:27;101589.19;;;5.12;100.00
10064;BME280;5071;52.360;13.134;2023-04-07T21:13:29;101595.28;;;5.10;100.00
10064;BME280;5071;52.360;13.134;2023-04-07T21:18:32;101586.47;;;5.07;100.00
10064;BME280;5071;52.360;13.134;2023-04-07T21:23:34;101587.25;;;5.03;100.00
10064;BME280;5071;52.360;13.134;2023-04-07T21:28:36;101577.78;;;5.12;100.00
10064;BME280;5071;52.360;13.134;2023-04-07T21:33:39;101571.53;;;5.06;100.00
10064;BME280;5071;52.360;13.134;2023-04-07T21:38:41;101577.56;;;5.02;100.00
10064;BME280;5071;52.360;13.134;2023-04-07T21:43:42;101578.41;;;5.00;100.00
10064;BME280;5071;52.360;13.134;2023-04-07T21:48:45;101581.91;;;5.00;100.00
10064;BME280;5071;52.360;13.134;2023-04-07T21:53:47;101586.34;;;5.01;100.00
10064;BME280;5071;52.360;13.134;2023-04-07T21:58:49;101577.53;;;4.99;100.00
10064;BME280;5071;52.360;13.134;2023-04-07T22:03:53;101593.31;;;4.99;100.00
10064;BME280;5071;52.360;13.134;2023-04-07T22:08:55;101593.34;;;5.02;100.00
10064;BME280;5071;52.360;13.134;2023-04-07T22:14:03;101589.81;;;5.00;100.00
10064;BME280;5071;52.360;13.134;2023-04-07T22:19:06;101598.56;;;4.99;100.00
10064;BME280;5071;52.360;13.134;2023-04-07T22:24:08;101579.19;;;4.97;100.00
10064;BME280;5071;52.360;13.134;2023-04-07T22:29:10;101585.50;;;5.04;100.00
10064;BME280;5071;52.360;13.134;2023-04-07T22:34:14;101571.53;;;5.06;100.00
10064;BME280;5071;52.360;13.134;2023-04-07T22:39:18;101587.22;;;5.02;100.00
10064;BME280;5071;52.360;13.134;2023-04-07T22:44:19;101579.28;;;5.00;100.00
10064;BME280;5071;52.360;13.134;2023-04-07T22:49:23;101579.63;;;5.16;100.00
10064;BME280;5071;52.360;13.134;2023-04-07T22:54:25;101588.28;;;5.10;100.00
10064;BME280;5071;52.360;13.134;2023-04-07T22:59:27;101584.63;;;5.03;100.00
10064;BME280;5071;52.360;13.134;2023-04-07T23:04:30;101596.00;;;5.02;100.00
10064;BME280;5071;52.360;13.134;2023-04-07T23:09:32;101596.88;;;5.01;100.00
10064;BME280;5071;52.360;13.134;2023-04-07T23:14:34;101601.22;;;5.01;100.00
10064;BME280;5071;52.360;13.134;2023-04-07T23:19:40;101589.72;;;4.97;100.00
10064;BME280;5071;52.360;13.134;2023-04-07T23:24:41;101600.47;;;5.06;100.00
10064;BME280;5071;52.360;13.134;2023-04-07T23:29:43;101594.38;;;5.07;100.00
10064;BME280;5071;52.360;13.134;2023-04-07T23:34:46;101601.25;;;5.02;100.00
10064;BME280;5071;52.360;13.134;2023-04-07T23:39:48;101603.97;;;5.05;100.00
10064;BME280;5071;52.360;13.134;2023-04-07T23:44:50;101594.22;;;5.01;100.00
10064;BME280;5071;52.360;13.134;2023-04-07T23:49:53;101590.78;;;5.04;100.00
10064;BME280;5071;52.360;13.134;2023-04-07T23:54:56;101587.31;;;5.06;100.00
10064;BME280;5071;52.360;13.134;2023-04-07T23:59:58;101578.50;;;5.04;100.00
